Sodus, MI (49126)

8:04 PM EST on December 24, 2014 (GMT -0500)
Kevin and Patricia's | Change Station
CLOSE
Current Station
Personal Weather Station
Location: Millburg, MI
Elevation: 669 ft
Nearby Weather Stations

Elev 669 ft 42.12 °N, 86.34 °W | Updated 11 seconds ago

Rain
Rain
36.3 °F
Feels Like 32 °F
N
4.7
Wind Variable Wind from West
Gusts 8.9 mph

Today
High -- | Low -- °F
--% Chance of Precip.
Yesterday
High -- | Low -- °F
Precip. -- in
8:11 AM 5:18 PM
Waxing Crescent, 12% visible
Pressure 29.51 in
Visibility 8.0 miles
Clouds Overcast 1200 ft
Windchill 32 °F
Dew Point 34 °F
Humidity 91%
Rainfall 0.02 in
Snow Depth Not available.
UV 0 out of 12
Pollen .10 out of 12
Air Quality Not available.
Flu Activity Not available.
METAR KBEH 250053Z AUTO 27014KT 8SM -RA OVC012 03/02 A2950 RMK AO2 UPB36E49 SLP992 P0003 T00280017

More Conditions Fewer Conditions

Pressure 29.51 in
Visibility 8.0 miles
Clouds Overcast 1200 ft
Windchill 32 °F
Dew Point 34 °F
Humidity 91%
Rainfall 0.02 in
Snow Depth Not available.
UV 0 out of 12
Pollen .10 out of 12
Air Quality Not available.
Flu Activity Not available.
METAR KBEH 250053Z AUTO 27014KT 8SM -RA OVC012 03/02 A2950 RMK AO2 UPB36E49 SLP992 P0003 T00280017

More Conditions Fewer Conditions

10-Day Weather Forecast

Almanac

Astronomy

Dec. 24, 2014 Rise Set
Actual Time
Civil Twilight
Nautical Twilight
Astronomical Twilight
Moon
Length of Visible Light
Length of Day
Tomorrow will be .
, % of the Moon is Illuminated

Today's Extremes

State Highs State Lows

Community

WunderPhotos

Upload Photos

1,780,199 photos uploaded!

WunderBlogs® & News

Nearby

Air Quality

  Air Quality AQ Index Pollutant
Not available.

Snow Depth

Station Depth Elevation

Earthquake Activity

City Distance Mag. Time & Date
Minimum magnitude displayed is 2.5.

Coastal Water Temperatures

Place Temperature

Nearby Weather Stations